Delaware Water Gap, PA (18327)

7:23 PM EST on December 25, 2014 (GMT -0500)
South Stroudsburg | Change Station
CLOSE
Current Station
Personal Weather Station
Location: Stroudsburg, PA
Elevation: 450 ft
Nearby Weather Stations

Elev 450 ft 40.98 °N, 75.19 °W | Updated 0 second ago

Mostly Cloudy
Mostly Cloudy
44.4 °F
Feels Like 44 °F
N
1.8
Wind Variable Wind from West
Gusts 12.5 mph

Today
High -- | Low -- °F
--% Chance of Precip.
Yesterday
High -- | Low -- °F
Precip. -- in
7:23 AM 4:37 PM
Waxing Crescent, 20% visible
Pressure 30.03 in
Visibility 10.0 miles
Clouds Overcast 3000 ft
Windchill 44 °F
Dew Point 35 °F
Humidity 69%
Rainfall 0.07 in
Snow Depth Not available.
UV 0 out of 12
Pollen .10 out of 12
Air Quality Not available.
Flu Activity Not available.
METAR KMPO 252353Z AUTO 30014G22KT 10SM OVC030 03/M02 A2998 RMK AO2 SLP167 T00331017 10050 20033 51021

More Conditions Fewer Conditions

Pressure 30.03 in
Visibility 10.0 miles
Clouds Overcast 3000 ft
Windchill 44 °F
Dew Point 35 °F
Humidity 69%
Rainfall 0.07 in
Snow Depth Not available.
UV 0 out of 12
Pollen .10 out of 12
Air Quality Not available.
Flu Activity Not available.
METAR KMPO 252353Z AUTO 30014G22KT 10SM OVC030 03/M02 A2998 RMK AO2 SLP167 T00331017 10050 20033 51021

More Conditions Fewer Conditions

10-Day Weather Forecast

Almanac

Astronomy

Dec. 25, 2014 Rise Set
Actual Time
Civil Twilight
Nautical Twilight
Astronomical Twilight
Moon
Length of Visible Light
Length of Day
Tomorrow will be .
, % of the Moon is Illuminated

Today's Extremes

State Highs State Lows

Community

WunderPhotos

Upload Photos

1,780,474 photos uploaded!

WunderBlogs® & News

Nearby

Air Quality

  Air Quality AQ Index Pollutant
Not available.

Snow Depth

Station Depth Elevation

Earthquake Activity

City Distance Mag. Time & Date
Minimum magnitude displayed is 2.5.

Coastal Water Temperatures

Place Temperature

Nearby Weather Stations